Imperial Eagle — V7TK5 — position and weather

sailwx.info

Track history (hours):
 
Tides and Currents Weather Stations Pressure Air Temp Water Temp Dewpoint Dewpoint Depression Visibility Wind Speed Wind Dir Waves Ship Positions

Imperial Eagle

Last reported at 2018-Jan-06 19:54 UTC. Time now 2018-Jan-19 09:56 UTC.
Position S 25°40' W 047°21'.
Warning: this ship's position is 12 days out of date.

Length 190 m; draft 12.5 m.

Type: Cargo ship. MMSI: 256759020.

Date/timePositionNaut miles runAvg speedWind from/ knotsBaromVisibWave heightAir tempDewpointWater temp
2018-Jan-06 19:54S 25°40' W 047°21'713.4
2018-Jan-06 19:22S 25°40' W 047°13'513.4
2018-Jan-06 19:00S 25°40' W 047°08'1113.3
2018-Jan-06 18:10S 25°40' W 046°56'613.3
2018-Jan-06 17:42S 25°40' W 046°49'313.3
2018-Jan-06 17:30S 25°41' W 046°46'1913.6
2018-Jan-06 16:07S 25°41' W 046°25'913.6
2018-Jan-06 15:29S 25°41' W 046°16'813.5
2018-Jan-06 14:52S 25°41' W 046°06'513.6
2018-Jan-06 14:30S 25°41' W 046°01'  
Track history (hours):
 
Tides and Currents Weather Stations Pressure Air Temp Water Temp Dewpoint Dewpoint Depression Visibility Wind Speed Wind Dir Waves Ship Positions

Imperial Eagle

Last reported at 2018-Jan-06 19:54 UTC. Time now 2018-Jan-19 09:56 UTC.
Position S 25°40' W 047°21'.
Warning: this ship's position is 12 days out of date.

Length 190 m; draft 12.5 m.

Type: Cargo ship. MMSI: 256759020.

Date/timePositionNaut miles runAvg speedWind from/ knotsBaromVisibWave heightAir tempDewpointWater temp
2018-Jan-06 19:54S 25°40' W 047°21'713.4
2018-Jan-06 19:22S 25°40' W 047°13'513.4
2018-Jan-06 19:00S 25°40' W 047°08'1113.3
2018-Jan-06 18:10S 25°40' W 046°56'613.3
2018-Jan-06 17:42S 25°40' W 046°49'313.3
2018-Jan-06 17:30S 25°41' W 046°46'1913.6
2018-Jan-06 16:07S 25°41' W 046°25'913.6
2018-Jan-06 15:29S 25°41' W 046°16'813.5
2018-Jan-06 14:52S 25°41' W 046°06'513.6
2018-Jan-06 14:30S 25°41' W 046°01'  

Dump ship's entire track history